Time;durP1;ratioP1;P1;durP2;ratioP2;P2;SDS_P1;SDS_P2;PMS_P1;PMS_P2;Temp;Humidity;BMP_temperature;BMP_pressure;BME280_temperature;BME280_humidity;BME280_pressure;Samples;Min_cycle;Max_cycle;Signal;HPM_P1;HPM_P2
2023/04/06 00:00:11;;;;;;;;;;;;;;;7.78;70.23;101451.53;5062675;28;2089;-77
2023/04/06 00:02:38;;;;;;;;;;;;;;;7.78;70.60;101453.38;5083563;28;1006;-76
2023/04/06 00:05:04;;;;;;;;;;;;;;;7.76;70.48;101450.03;5062507;28;2134;-77
2023/04/06 00:07:33;;;;;;;;;;;;;;;7.74;70.34;101450.22;5061791;28;2021;-77
2023/04/06 00:09:59;;;;;;;;;;;;;;;7.73;70.57;101452.06;5077140;28;5436;-78
2023/04/06 00:12:26;;;;;;;;;;;;;;;7.73;70.62;101454.75;5075632;28;6052;-78
2023/04/06 00:14:52;;;;;;;;;;;;;;;7.71;70.70;101454.09;5082070;28;1758;-77
2023/04/06 00:17:19;;;;;;;;;;;;;;;7.72;70.60;101460.28;5079761;28;4457;-78
2023/04/06 00:19:45;;;;;;;;;;;;;;;7.70;70.72;101462.31;5081068;28;2026;-77
2023/04/06 00:22:12;;;;;;;;;;;;;;;7.69;70.21;101466.00;5064866;28;2031;-78
2023/04/06 00:24:39;;;;;;;;;;;;;;;7.67;70.63;101460.81;5054375;28;2197;-76
2023/04/06 00:27:05;;;;;;;;;;;;;;;7.67;70.71;101463.47;5067128;28;2275;-78
2023/04/06 00:29:32;;;;;;;;;;;;;;;7.65;70.72;101457.50;5076702;28;5152;-77
2023/04/06 00:31:58;;;;;;;;;;;;;;;7.65;70.73;101462.03;5079663;28;1964;-79
2023/04/06 00:34:25;;;;;;;;;;;;;;;7.64;70.39;101466.53;5051787;28;2066;-77
2023/04/06 00:36:51;;;;;;;;;;;;;;;7.62;70.32;101465.88;5070463;28;2076;-78
2023/04/06 00:39:18;;;;;;;;;;;;;;;7.62;70.29;101468.56;5066247;28;2196;-77
2023/04/06 00:41:44;;;;;;;;;;;;;;;7.61;70.49;101463.38;5065765;28;2660;-79
2023/04/06 00:44:11;;;;;;;;;;;;;;;7.60;70.27;101472.44;5066693;28;2350;-77
2023/04/06 00:46:37;;;;;;;;;;;;;;;7.59;70.68;101462.72;5068070;28;2200;-77
2023/04/06 00:49:04;;;;;;;;;;;;;;;7.57;70.37;101465.59;5070603;28;2640;-78
2023/04/06 00:51:30;;;;;;;;;;;;;;;7.57;70.33;101465.59;5072485;28;2677;-76
2023/04/06 00:53:57;;;;;;;;;;;;;;;7.55;70.09;101462.22;5065084;28;2157;-77
2023/04/06 00:56:26;;;;;;;;;;;;;;;7.54;70.40;101454.38;5066490;28;2259;-78
2023/04/06 00:58:52;;;;;;;;;;;;;;;7.53;70.39;101456.25;5067278;28;2137;-78
2023/04/06 01:01:18;;;;;;;;;;;;;;;7.53;70.39;101458.06;5065308;28;2128;-77
2023/04/06 01:03:48;;;;;;;;;;;;;;;7.51;70.39;101459.06;5070236;28;2276;-78
2023/04/06 01:06:15;;;;;;;;;;;;;;;7.50;70.19;101459.28;5069939;28;2192;-78
2023/04/06 01:08:41;;;;;;;;;;;;;;;7.50;70.19;101453.91;5052360;28;2035;-76
2023/04/06 01:11:08;;;;;;;;;;;;;;;7.49;70.43;101454.91;5043205;28;2532;-79
2023/04/06 01:13:34;;;;;;;;;;;;;;;7.47;69.93;101457.78;5051786;28;2154;-81
2023/04/06 01:16:01;;;;;;;;;;;;;;;7.46;70.15;101452.56;5066385;28;2148;-80
2023/04/06 01:18:27;;;;;;;;;;;;;;;7.46;69.98;101453.41;5048238;28;2149;-77
2023/04/06 01:20:54;;;;;;;;;;;;;;;7.45;70.13;101458.97;5046383;28;5222;-75
2023/04/06 01:23:20;;;;;;;;;;;;;;;7.43;70.11;101451.09;5053950;28;4323;-76
2023/04/06 01:25:47;;;;;;;;;;;;;;;7.43;70.35;101450.25;5048019;28;2550;-76
2023/04/06 01:28:13;;;;;;;;;;;;;;;7.42;70.18;101453.97;5046742;28;2123;-78
2023/04/06 01:30:41;;;;;;;;;;;;;;;7.40;70.06;101451.44;5057101;28;2377;-76
2023/04/06 01:33:07;;;;;;;;;;;;;;;7.39;70.26;101452.47;5045749;28;2596;-78
2023/04/06 01:35:35;;;;;;;;;;;;;;;7.38;70.24;101450.81;5058614;28;2089;-77
2023/04/06 01:38:01;;;;;;;;;;;;;;;7.38;70.10;101456.16;5050754;28;2137;-80
2023/04/06 01:40:28;;;;;;;;;;;;;;;7.37;70.02;101459.00;5048010;28;2326;-76
2023/04/06 01:42:54;;;;;;;;;;;;;;;7.36;70.18;101460.03;5046196;28;2079;-77
2023/04/06 01:45:21;;;;;;;;;;;;;;;7.35;70.26;101455.66;5041989;28;2133;-76
2023/04/06 01:47:48;;;;;;;;;;;;;;;7.33;70.02;101452.34;5050386;28;2102;-80
2023/04/06 01:50:14;;;;;;;;;;;;;;;7.33;69.88;101445.13;5047898;28;2205;-79
2023/04/06 01:52:41;;;;;;;;;;;;;;;7.33;69.89;101449.66;5052523;28;2288;-80
2023/04/06 01:55:07;;;;;;;;;;;;;;;7.31;69.96;101451.66;5049293;28;2180;-78
2023/04/06 01:57:34;;;;;;;;;;;;;;;7.30;69.95;101453.53;5059392;28;2490;-77
2023/04/06 02:00:01;;;;;;;;;;;;;;;7.28;69.71;101451.00;5050678;28;2097;-78
2023/04/06 02:02:28;;;;;;;;;;;;;;;7.28;70.11;101447.50;5044089;28;2607;-80
2023/04/06 02:04:54;;;;;;;;;;;;;;;7.26;69.72;101445.00;5048915;28;2365;-78
2023/04/06 02:07:21;;;;;;;;;;;;;;;7.25;69.76;101443.31;5048166;28;2334;-77
2023/04/06 02:09:47;;;;;;;;;;;;;;;7.25;69.76;101446.00;5044830;28;2168;-77
2023/04/06 02:12:14;;;;;;;;;;;;;;;7.24;70.10;101438.97;5044197;28;2185;-77
2023/04/06 02:14:41;;;;;;;;;;;;;;;7.23;69.84;101439.16;5040757;28;2384;-79
2023/04/06 02:17:07;;;;;;;;;;;;;;;7.21;69.91;101435.81;5038020;28;2588;-78
2023/04/06 02:19:34;;;;;;;;;;;;;;;7.20;69.87;101439.50;5041724;28;2125;-78
2023/04/06 02:22:00;;;;;;;;;;;;;;;7.20;69.96;101440.31;5045963;28;2397;-80
2023/04/06 02:24:27;;;;;;;;;;;;;;;7.19;69.62;101433.31;5059707;28;5323;-79
2023/04/06 02:26:53;;;;;;;;;;;;;;;7.18;69.82;101439.69;5059254;28;2199;-79
2023/04/06 02:29:21;;;;;;;;;;;;;;;7.18;70.13;101433.50;5060674;28;4128;-79
2023/04/06 02:31:47;;;;;;;;;;;;;;;7.17;69.58;101435.31;5058434;28;2286;-79
2023/04/06 02:34:17;;;;;;;;;;;;;;;7.17;69.48;101445.22;5059841;28;2204;-80
2023/04/06 02:36:43;;;;;;;;;;;;;;;7.15;69.75;101437.34;5053194;28;2196;-78
2023/04/06 02:39:10;;;;;;;;;;;;;;;7.14;69.69;101434.84;5057425;28;2130;-79
2023/04/06 02:41:36;;;;;;;;;;;;;;;7.14;69.50;101438.34;5062956;28;5003;-78
2023/04/06 02:44:03;;;;;;;;;;;;;;;7.13;69.46;101436.69;5058114;28;2542;-78
2023/04/06 02:46:29;;;;;;;;;;;;;;;7.13;69.44;101433.19;5060095;28;2707;-76
2023/04/06 02:48:56;;;;;;;;;;;;;;;7.12;69.45;101437.72;5066403;28;2172;-78
2023/04/06 02:51:22;;;;;;;;;;;;;;;6.59;69.86;101346.41;5049103;28;2245;-77
2023/04/06 02:53:49;;;;;;;;;;;;;;;7.11;69.61;101433.34;5071094;28;2585;-79
2023/04/06 02:56:16;;;;;;;;;;;;;;;7.11;69.32;101428.00;5048749;28;2780;-79
2023/04/06 02:58:42;;;;;;;;;;;;;;;7.10;69.45;101425.50;5048323;28;2641;-79
2023/04/06 03:01:09;;;;;;;;;;;;;;;7.09;69.67;101426.50;5070144;28;2699;-79
2023/04/06 03:03:35;;;;;;;;;;;;;;;7.09;69.67;101427.34;5067985;28;2427;-78
2023/04/06 03:06:02;;;;;;;;;;;;;;;7.09;69.46;101426.50;5068723;28;2302;-78
2023/04/06 03:08:29;;;;;;;;;;;;;;;7.08;69.60;101433.69;5068617;28;2140;-79
2023/04/06 03:10:55;;;;;;;;;;;;;;;7.07;69.24;101429.34;5056716;28;2272;-77
2023/04/06 03:13:22;;;;;;;;;;;;;;;7.07;69.52;101424.00;5052923;28;2268;-78
2023/04/06 03:15:48;;;;;;;;;;;;;;;7.07;69.31;101431.22;5070496;28;2592;-80
2023/04/06 03:18:15;;;;;;;;;;;;;;;7.07;69.04;101428.53;5069446;28;2261;-76
2023/04/06 03:20:42;;;;;;;;;;;;;;;7.05;69.42;101429.53;5068842;28;2462;-78
2023/04/06 03:23:08;;;;;;;;;;;;;;;7.04;69.26;101430.53;5071578;28;2717;-78
2023/04/06 03:25:35;;;;;;;;;;;;;;;7.03;69.37;101420.00;5078042;28;2486;-78
2023/04/06 03:28:02;;;;;;;;;;;;;;;7.02;69.03;101419.16;5073312;28;2448;-77
2023/04/06 03:30:28;;;;;;;;;;;;;;;7.03;69.42;101426.22;5076147;28;5171;-79
2023/04/06 03:32:55;;;;;;;;;;;;;;;7.02;69.18;101423.69;5070391;28;5311;-80
2023/04/06 03:35:21;;;;;;;;;;;;;;;7.01;68.89;101425.53;5072713;28;2514;-78
2023/04/06 03:37:48;;;;;;;;;;;;;;;7.01;69.15;101427.38;5072277;28;4335;-79
2023/04/06 03:40:15;;;;;;;;;;;;;;;7.00;69.02;101433.72;5076556;28;2241;-77
2023/04/06 03:42:41;;;;;;;;;;;;;;;7.00;69.25;101433.72;5073258;28;2439;-79
2023/04/06 03:45:08;;;;;;;;;;;;;;;6.98;69.26;101430.41;5073503;28;2482;-77
2023/04/06 03:47:35;;;;;;;;;;;;;;;6.98;69.14;101431.25;5059733;28;2644;-79
2023/04/06 03:50:02;;;;;;;;;;;;;;;6.97;68.93;101423.38;5062141;28;5272;-80
2023/04/06 03:52:29;;;;;;;;;;;;;;;6.95;69.26;101426.25;5071195;28;2120;-78
2023/04/06 03:54:56;;;;;;;;;;;;;;;6.95;69.23;101423.56;5050768;28;2454;-79
2023/04/06 03:57:22;;;;;;;;;;;;;;;6.94;68.71;101431.75;5055631;28;2109;-79
2023/04/06 03:59:49;;;;;;;;;;;;;;;6.94;69.26;101426.41;5067913;28;2554;-80
2023/04/06 04:02:16;;;;;;;;;;;;;;;6.92;69.17;101433.78;5069524;28;2188;-79
2023/04/06 04:04:42;;;;;;;;;;;;;;;6.90;69.36;101428.59;5049164;28;2527;-79
2023/04/06 04:07:09;;;;;;;;;;;;;;;6.91;69.46;101432.09;5048560;28;2162;-77
2023/04/06 04:09:35;;;;;;;;;;;;;;;6.90;68.70;101425.91;5067824;28;2433;-79
2023/04/06 04:12:02;;;;;;;;;;;;;;;6.88;69.23;101427.09;5066724;28;2025;-80
2023/04/06 04:14:29;;;;;;;;;;;;;;;6.89;69.35;101420.75;5065412;28;2354;-80
2023/04/06 04:16:55;;;;;;;;;;;;;;;6.87;68.68;101422.75;5065427;28;2397;-79
2023/04/06 04:19:22;;;;;;;;;;;;;;;6.85;69.04;101414.06;5049940;28;2587;-76
2023/04/06 04:21:48;;;;;;;;;;;;;;;6.86;69.12;101415.75;5068213;28;2046;-79
2023/04/06 04:24:15;;;;;;;;;;;;;;;6.83;69.04;101417.75;5056113;28;2196;-76
2023/04/06 04:26:41;;;;;;;;;;;;;;;6.83;69.15;101419.59;5047750;28;2116;-78
2023/04/06 04:29:08;;;;;;;;;;;;;;;6.83;69.08;101415.06;5065161;28;2389;-79
2023/04/06 04:31:35;;;;;;;;;;;;;;;6.82;69.16;101417.91;5067803;28;2827;-75
2023/04/06 04:34:01;;;;;;;;;;;;;;;6.81;68.65;101416.25;5039126;28;5686;-78
2023/04/06 04:36:28;;;;;;;;;;;;;;;6.81;68.90;101421.59;5065464;28;2165;-80
2023/04/06 04:38:55;;;;;;;;;;;;;;;6.79;68.88;101412.91;5048064;28;4285;-76
2023/04/06 04:41:21;;;;;;;;;;;;;;;6.79;69.10;101423.63;5050816;28;2508;-81
2023/04/06 04:43:48;;;;;;;;;;;;;;;6.77;68.96;101415.78;5067770;28;2417;-79
2023/04/06 04:46:14;;;;;;;;;;;;;;;6.76;68.74;101423.97;5066795;28;2088;-80
2023/04/06 04:48:41;;;;;;;;;;;;;;;6.75;69.00;101425.81;5068124;28;2131;-79
2023/04/06 04:51:07;;;;;;;;;;;;;;;6.75;68.85;101414.28;5065086;28;4917;-79
2023/04/06 04:53:34;;;;;;;;;;;;;;;6.75;68.85;101423.13;5063817;28;2609;-79
2023/04/06 04:56:02;;;;;;;;;;;;;;;6.73;68.87;101421.63;5059654;28;2942;-79
2023/04/06 04:58:29;;;;;;;;;;;;;;;6.72;68.59;101420.81;5067116;28;2160;-77
2023/04/06 05:00:55;;;;;;;;;;;;;;;6.72;68.84;101425.34;5051164;28;2227;-78
2023/04/06 05:03:22;;;;;;;;;;;;;;;6.70;68.95;101417.47;5052542;28;2414;-80
2023/04/06 05:05:49;;;;;;;;;;;;;;;6.69;69.14;101412.28;5058309;28;2202;-79
2023/04/06 05:08:15;;;;;;;;;;;;;;;6.69;68.71;101414.97;5060991;28;2023;-79
2023/04/06 05:10:42;;;;;;;;;;;;;;;6.69;68.76;101414.97;5079999;28;1735;-78
2023/04/06 05:13:08;;;;;;;;;;;;;;;6.68;68.79;101418.66;5074516;28;1914;-78
2023/04/06 05:15:37;;;;;;;;;;;;;;;6.67;68.83;101409.78;5074911;28;2030;-80
2023/04/06 05:18:04;;;;;;;;;;;;;;;6.66;68.84;101413.47;5064369;28;2105;-77
2023/04/06 05:20:31;;;;;;;;;;;;;;;6.65;68.88;101413.63;5077070;28;2084;-77
2023/04/06 05:22:57;;;;;;;;;;;;;;;6.63;68.34;101403.09;5061079;28;1779;-79
2023/04/06 05:25:24;;;;;;;;;;;;;;;6.63;68.63;101405.78;5076080;28;2073;-80
2023/04/06 05:27:50;;;;;;;;;;;;;;;6.63;68.79;101410.31;5074526;28;2148;-78
2023/04/06 05:30:17;;;;;;;;;;;;;;;6.62;68.30;101411.28;5074221;28;2348;-78
2023/04/06 05:32:44;;;;;;;;;;;;;;;6.60;68.83;101403.47;5074332;28;2018;-78
2023/04/06 05:35:10;;;;;;;;;;;;;;;6.60;68.70;101406.97;5074837;28;1797;-78
2023/04/06 05:37:37;;;;;;;;;;;;;;;6.58;68.45;101400.94;5074222;28;5289;-77
2023/04/06 05:40:03;;;;;;;;;;;;;;;6.58;68.61;101403.63;5071322;28;5277;-79
2023/04/06 05:42:30;;;;;;;;;;;;;;;6.58;68.50;101405.47;5076846;28;2041;-80
2023/04/06 05:44:56;;;;;;;;;;;;;;;6.56;68.49;101402.97;5075765;28;3731;-81
2023/04/06 05:47:23;;;;;;;;;;;;;;;6.35;68.30;101371.44;5074829;28;2012;-78
2023/04/06 05:49:49;;;;;;;;;;;;;;;6.55;68.72;101413.84;5076459;28;2164;-79
2023/04/06 05:52:16;;;;;;;;;;;;;;;6.54;68.40;101413.00;5076033;28;2215;-79
2023/04/06 05:54:42;;;;;;;;;;;;;;;6.54;68.85;101425.56;5062563;28;2059;-78
2023/04/06 05:57:09;;;;;;;;;;;;;;;6.53;68.42;101422.06;5073638;28;3694;-78
2023/04/06 05:59:35;;;;;;;;;;;;;;;6.52;68.28;101422.22;5075630;28;1995;-76
2023/04/06 06:02:02;;;;;;;;;;;;;;;6.51;68.45;101420.56;5074571;28;2065;-80
2023/04/06 06:04:28;;;;;;;;;;;;;;;6.50;68.47;101422.41;5074413;28;2526;-80
2023/04/06 06:06:55;;;;;;;;;;;;;;;6.50;68.17;101421.53;5065681;28;2119;-80
2023/04/06 06:09:22;;;;;;;;;;;;;;;6.49;68.53;101422.56;5043847;28;2480;-80
2023/04/06 06:11:48;;;;;;;;;;;;;;;6.48;68.70;101412.88;5070024;28;2121;-79
2023/04/06 06:14:15;;;;;;;;;;;;;;;6.47;68.38;101411.19;5066079;28;2173;-78
2023/04/06 06:16:41;;;;;;;;;;;;;;;6.47;68.38;101413.84;5048041;28;2177;-78
2023/04/06 06:19:08;;;;;;;;;;;;;;;6.45;68.56;101414.03;5063138;28;2321;-80
2023/04/06 06:21:34;;;;;;;;;;;;;;;6.45;68.59;101411.38;5070492;28;2791;-81
2023/04/06 06:24:01;;;;;;;;;;;;;;;6.44;68.16;101411.53;5047079;28;2255;-80
2023/04/06 06:26:27;;;;;;;;;;;;;;;6.43;68.31;101396.47;5069646;28;2543;-76
2023/04/06 06:28:54;;;;;;;;;;;;;;;6.43;68.15;101410.69;5063839;28;1826;-78
2023/04/06 06:31:22;;;;;;;;;;;;;;;6.41;68.15;101402.00;5069594;28;2085;-80
2023/04/06 06:33:51;;;;;;;;;;;;;;;6.41;68.46;101409.19;5073119;28;2247;-78
2023/04/06 06:36:17;;;;;;;;;;;;;;;6.39;68.12;101404.03;5073879;28;2006;-80
2023/04/06 06:38:44;;;;;;;;;;;;;;;6.39;68.29;101406.69;5054438;28;2363;-79
2023/04/06 06:41:11;;;;;;;;;;;;;;;6.39;68.44;101403.19;5049747;28;2161;-80
2023/04/06 06:43:37;;;;;;;;;;;;;;;6.36;68.47;101407.88;5067271;28;3668;-78
2023/04/06 06:46:04;;;;;;;;;;;;;;;6.36;68.41;101413.22;5042397;28;5296;-77
2023/04/06 06:48:31;;;;;;;;;;;;;;;6.36;68.41;101418.56;5063221;28;4859;-78
2023/04/06 06:50:57;;;;;;;;;;;;;;;6.37;68.31;101419.41;5081231;28;1671;-79
2023/04/06 06:53:24;;;;;;;;;;;;;;;6.35;68.26;101410.72;5081073;28;4328;-79
2023/04/06 06:55:50;;;;;;;;;;;;;;;6.34;67.99;101412.56;5082320;28;2378;-80
2023/04/06 06:58:17;;;;;;;;;;;;;;;6.33;68.21;101421.59;5087120;28;2369;-78
2023/04/06 07:00:43;;;;;;;;;;;;;;;6.33;68.32;101412.75;5083526;28;2609;-78
2023/04/06 07:03:10;;;;;;;;;;;;;;;6.33;68.17;101415.41;5081546;28;2249;-79
2023/04/06 07:05:37;;;;;;;;;;;;;;;6.32;68.21;101419.06;5075507;28;4635;-78
2023/04/06 07:08:03;;;;;;;;;;;;;;;6.31;68.28;101417.41;5058773;28;2176;-80
2023/04/06 07:10:30;;;;;;;;;;;;;;;6.30;68.25;101415.75;5061521;28;2004;-78
2023/04/06 07:12:57;;;;;;;;;;;;;;;6.29;68.39;101409.53;5076875;28;3360;-79
2023/04/06 07:15:23;;;;;;;;;;;;;;;6.29;67.86;101420.25;5064220;28;2187;-79
2023/04/06 07:17:50;;;;;;;;;;;;;;;6.28;67.99;101412.41;5063104;28;1820;-79
2023/04/06 07:20:16;;;;;;;;;;;;;;;6.27;68.15;101418.78;5076811;28;1827;-78
2023/04/06 07:22:43;;;;;;;;;;;;;;;6.26;67.98;101417.91;5059259;28;2270;-77
2023/04/06 07:25:09;;;;;;;;;;;;;;;6.26;68.24;101414.41;5062281;28;1981;-78
2023/04/06 07:27:36;;;;;;;;;;;;;;;6.25;67.88;101415.44;5073088;28;1883;-77
2023/04/06 07:30:03;;;;;;;;;;;;;;;6.24;67.96;101417.28;5078767;28;1963;-77
2023/04/06 07:32:29;;;;;;;;;;;;;;;6.24;67.99;101411.09;5077976;28;2350;-77
2023/04/06 07:34:56;;;;;;;;;;;;;;;6.23;68.09;101412.91;5080047;28;1940;-75
2023/04/06 07:37:23;;;;;;;;;;;;;;;6.22;67.95;101407.75;5075006;28;2081;-77
2023/04/06 07:39:49;;;;;;;;;;;;;;;6.22;68.02;101405.91;5075079;28;1919;-76
2023/04/06 07:42:16;;;;;;;;;;;;;;;6.21;67.90;101406.09;5067088;28;2172;-76
2023/04/06 07:44:42;;;;;;;;;;;;;;;6.20;68.14;101412.41;5080068;28;2170;-77
2023/04/06 07:47:09;;;;;;;;;;;;;;;6.20;68.06;101407.06;5082657;28;2093;-76
2023/04/06 07:49:35;;;;;;;;;;;;;;;6.20;67.79;101412.41;5061201;28;1864;-76
2023/04/06 07:52:02;;;;;;;;;;;;;;;6.19;67.91;101400.06;5079293;28;4962;-77
2023/04/06 07:54:29;;;;;;;;;;;;;;;6.19;68.02;101397.38;5085432;28;4395;-78
2023/04/06 07:56:56;;;;;;;;;;;;;;;6.17;67.78;101400.22;5063860;28;4515;-78
2023/04/06 07:59:22;;;;;;;;;;;;;;;6.16;67.78;101403.91;5081588;28;2153;-77
2023/04/06 08:01:49;;;;;;;;;;;;;;;6.16;67.73;101401.22;5079921;28;2196;-78
2023/04/06 08:04:15;;;;;;;;;;;;;;;6.16;67.89;101403.06;5083048;28;2089;-80
2023/04/06 08:06:42;;;;;;;;;;;;;;;6.14;67.90;101398.72;5086870;28;2156;-80
2023/04/06 08:09:08;;;;;;;;;;;;;;;6.14;67.82;101395.22;5065136;28;4660;-79
2023/04/06 08:11:35;;;;;;;;;;;;;;;6.13;67.87;101397.06;5066430;28;2252;-79
2023/04/06 08:14:01;;;;;;;;;;;;;;;6.13;67.69;101398.91;5064972;28;2098;-79
2023/04/06 08:16:28;;;;;;;;;;;;;;;6.13;68.04;101393.53;5066789;28;2178;-80
2023/04/06 08:18:55;;;;;;;;;;;;;;;6.11;67.80;101393.69;5065220;28;2089;-76
2023/04/06 08:21:21;;;;;;;;;;;;;;;6.12;67.77;101397.25;5062555;28;3688;-78
2023/04/06 08:23:48;;;;;;;;;;;;;;;6.12;67.95;101397.25;5082872;28;3225;-79
2023/04/06 08:26:15;;;;;;;;;;;;;;;6.10;67.83;101402.75;5084324;28;2041;-78
2023/04/06 08:28:41;;;;;;;;;;;;;;;6.10;67.86;101396.56;5066185;28;3436;-79
2023/04/06 08:31:08;;;;;;;;;;;;;;;6.09;67.80;101405.59;5064454;28;2347;-79
2023/04/06 08:33:36;;;;;;;;;;;;;;;6.09;67.95;101397.56;5070103;28;2549;-77
2023/04/06 08:36:02;;;;;;;;;;;;;;;6.09;67.75;101405.59;5070412;28;2597;-78
2023/04/06 08:38:29;;;;;;;;;;;;;;;6.08;67.72;101404.75;5065448;28;2341;-77
2023/04/06 08:40:56;;;;;;;;;;;;;;;6.08;67.73;101403.91;5072290;28;3019;-78
2023/04/06 08:43:22;;;;;;;;;;;;;;;6.08;67.67;101409.25;5064483;28;2418;-78
2023/04/06 08:45:49;;;;;;;;;;;;;;;6.07;67.80;101403.09;5084548;28;2156;-78
2023/04/06 08:48:16;;;;;;;;;;;;;;;6.06;67.91;101406.78;5068870;28;1319;-77
2023/04/06 08:50:42;;;;;;;;;;;;;;;6.06;67.54;101400.56;5072035;28;2017;-76
2023/04/06 08:53:09;;;;;;;;;;;;;;;6.06;67.65;101401.44;5082787;28;2551;-77
2023/04/06 08:55:35;;;;;;;;;;;;;;;6.06;67.93;101405.91;5087697;28;2589;-77
2023/04/06 08:58:02;;;;;;;;;;;;;;;6.06;67.65;101406.78;5070797;28;2143;-77
2023/04/06 09:00:28;;;;;;;;;;;;;;;6.05;67.82;101401.56;5084814;28;5519;-77
2023/04/06 09:02:55;;;;;;;;;;;;;;;6.04;67.69;101402.59;5084647;28;1764;-77
2023/04/06 09:05:22;;;;;;;;;;;;;;;6.04;67.72;101399.91;5086672;28;4430;-77
2023/04/06 09:07:48;;;;;;;;;;;;;;;6.03;67.86;101407.13;5069019;28;1921;-77
2023/04/06 09:10:15;;;;;;;;;;;;;;;6.03;67.86;101400.91;5081314;28;2184;-76
2023/04/06 09:12:41;;;;;;;;;;;;;;;6.03;67.76;101398.22;5082265;28;1717;-77
2023/04/06 09:15:08;;;;;;;;;;;;;;;6.01;67.72;101403.75;5082026;28;2094;-78
2023/04/06 09:17:36;;;;;;;;;;;;;;;6.02;67.67;101410.78;5064029;28;4642;-78
2023/04/06 09:20:03;;;;;;;;;;;;;;;6.01;67.75;101401.09;5087995;28;1595;-79
2023/04/06 09:22:30;;;;;;;;;;;;;;;6.01;67.67;101395.75;5064774;28;2157;-77
2023/04/06 09:24:56;;;;;;;;;;;;;;;6.01;67.97;101398.41;5083496;28;2106;-76
2023/04/06 09:27:23;;;;;;;;;;;;;;;6.00;67.76;101390.53;5063149;28;1999;-76
2023/04/06 09:29:50;;;;;;;;;;;;;;;6.00;67.77;101401.25;5081739;28;2082;-76
2023/04/06 09:32:16;;;;;;;;;;;;;;;6.00;67.63;101398.56;5081614;28;1990;-77
2023/04/06 09:34:45;;;;;;;;;;;;;;;5.99;67.64;101394.22;5064277;28;1990;-76
2023/04/06 09:37:11;;;;;;;;;;;;;;;5.99;67.64;101397.72;5082260;28;1908;-77
2023/04/06 09:39:38;;;;;;;;;;;;;;;5.99;67.78;101392.38;5081670;28;1561;-78
2023/04/06 09:42:05;;;;;;;;;;;;;;;5.98;67.58;101393.41;5065082;28;1641;-78
2023/04/06 09:44:31;;;;;;;;;;;;;;;5.97;67.71;101391.75;5047639;28;2191;-77
2023/04/06 09:46:58;;;;;;;;;;;;;;;5.97;67.50;101389.06;5073240;28;2474;-76
2023/04/06 09:49:24;;;;;;;;;;;;;;;5.97;67.79;101388.22;5082307;28;2042;-77
2023/04/06 09:51:51;;;;;;;;;;;;;;;5.96;67.51;101392.72;5083271;28;1037;-77
2023/04/06 09:54:17;;;;;;;;;;;;;;;5.97;67.54;101388.22;5063391;28;2055;-78
2023/04/06 09:56:44;;;;;;;;;;;;;;;5.96;67.76;101383.88;5064954;28;2478;-77
2023/04/06 09:59:11;;;;;;;;;;;;;;;5.95;67.59;101391.06;5065383;28;5318;-77
2023/04/06 10:01:37;;;;;;;;;;;;;;;5.95;67.35;101382.22;5084887;28;4574;-77
2023/04/06 10:04:04;;;;;;;;;;;;;;;5.95;67.50;101376.88;5080165;28;1010;-77
2023/04/06 10:06:32;;;;;;;;;;;;;;;5.94;67.84;101377.84;5086441;28;4332;-76
2023/04/06 10:08:59;;;;;;;;;;;;;;;5.94;67.77;101378.69;5066982;28;1243;-76
2023/04/06 10:11:25;;;;;;;;;;;;;;;5.94;67.60;101383.19;5064719;28;1264;-77
2023/04/06 10:13:52;;;;;;;;;;;;;;;5.92;67.57;101378.00;5064153;28;2086;-76
2023/04/06 10:16:18;;;;;;;;;;;;;;;5.93;67.60;101387.72;5082824;28;2038;-77
2023/04/06 10:18:45;;;;;;;;;;;;;;;5.92;67.61;101386.84;5083698;28;1754;-78
2023/04/06 10:21:12;;;;;;;;;;;;;;;5.92;67.57;101386.03;5067888;28;1354;-77
2023/04/06 10:23:38;;;;;;;;;;;;;;;5.92;67.62;101378.00;5084461;28;2205;-79
2023/04/06 10:26:05;;;;;;;;;;;;;;;5.91;67.47;101390.53;5064865;28;1200;-77
2023/04/06 10:28:31;;;;;;;;;;;;;;;5.89;67.33;101379.19;5066915;28;2100;-77
2023/04/06 10:30:58;;;;;;;;;;;;;;;5.90;67.62;101382.69;5081198;28;1964;-77
2023/04/06 10:33:24;;;;;;;;;;;;;;;5.89;67.86;101381.84;5060025;28;1985;-77
2023/04/06 10:35:51;;;;;;;;;;;;;;;5.89;67.46;101379.19;5066706;28;1257;-77
2023/04/06 10:38:21;;;;;;;;;;;;;;;5.90;67.49;101385.34;5082087;28;999;-75
2023/04/06 10:40:48;;;;;;;;;;;;;;;5.89;67.49;101381.03;5081485;28;1015;-76
2023/04/06 10:43:14;;;;;;;;;;;;;;;5.88;67.55;101384.69;5084009;28;2046;-78
2023/04/06 10:45:42;;;;;;;;;;;;;;;5.88;67.51;101384.69;5065863;28;2063;-76
2023/04/06 10:48:09;;;;;;;;;;;;;;;5.87;67.75;101381.16;5065333;28;2003;-78
2023/04/06 10:50:36;;;;;;;;;;;;;;;5.88;67.74;101382.00;5082393;28;1900;-79
2023/04/06 10:53:03;;;;;;;;;;;;;;;5.76;67.43;101357.44;5063668;28;1330;-77
2023/04/06 10:55:29;;;;;;;;;;;;;;;5.87;67.40;101378.50;5066575;28;2070;-78
2023/04/06 10:57:56;;;;;;;;;;;;;;;5.87;67.36;101375.00;5063342;28;2035;-76
2023/04/06 11:00:22;;;;;;;;;;;;;;;5.87;67.42;101383.00;5080749;28;2019;-76
2023/04/06 11:02:49;;;;;;;;;;;;;;;5.87;67.57;101381.16;5084949;28;1400;-77
2023/04/06 11:05:16;;;;;;;;;;;;;;;5.86;67.63;101381.34;5065669;28;5348;-76
2023/04/06 11:07:43;;;;;;;;;;;;;;;5.86;67.66;101379.50;5063691;28;2035;-77
2023/04/06 11:10:10;;;;;;;;;;;;;;;5.84;67.53;101368.16;5062016;28;4245;-78
2023/04/06 11:12:36;;;;;;;;;;;;;;;5.84;67.61;101378.84;5082575;28;2009;-76
2023/04/06 11:15:04;;;;;;;;;;;;;;;5.84;67.63;101370.00;5084132;28;1905;-79
2023/04/06 11:17:30;;;;;;;;;;;;;;;5.84;67.49;101376.16;5083082;28;2252;-80
2023/04/06 11:19:57;;;;;;;;;;;;;;;5.83;67.65;101362.97;5078154;28;905;-79
2023/04/06 11:22:23;;;;;;;;;;;;;;;5.83;67.50;101369.16;5080218;28;5210;-78
2023/04/06 11:24:50;;;;;;;;;;;;;;;5.83;67.53;101369.16;5083906;28;2199;-80
2023/04/06 11:27:16;;;;;;;;;;;;;;;5.82;67.44;101362.13;5082795;28;1100;-80
2023/04/06 11:29:43;;;;;;;;;;;;;;;5.82;67.37;101370.13;5080887;28;1742;-81
2023/04/06 11:32:09;;;;;;;;;;;;;;;5.83;67.36;101373.69;5065686;28;1397;-80
2023/04/06 11:34:36;;;;;;;;;;;;;;;5.82;67.54;101370.13;5085482;28;2034;-78
2023/04/06 11:37:05;;;;;;;;;;;;;;;5.81;67.38;101371.16;5078576;28;1966;-75
2023/04/06 11:39:32;;;;;;;;;;;;;;;5.81;67.41;101381.84;5055946;28;2142;-75
2023/04/06 11:41:59;;;;;;;;;;;;;;;5.81;67.20;101376.50;5069042;28;2059;-77
2023/04/06 11:44:26;;;;;;;;;;;;;;;5.81;67.58;101375.66;5073182;28;1973;-77
2023/04/06 11:46:52;;;;;;;;;;;;;;;5.82;67.46;101369.31;5078407;28;1986;-77
2023/04/06 11:49:19;;;;;;;;;;;;;;;5.81;67.33;101373.00;5078881;28;2300;-77
2023/04/06 11:51:45;;;;;;;;;;;;;;;5.80;67.46;101369.50;5079601;28;2279;-77
2023/04/06 11:54:12;;;;;;;;;;;;;;;5.79;67.60;101375.81;5053067;28;2215;-77
2023/04/06 11:56:39;;;;;;;;;;;;;;;5.79;67.45;101373.16;5066805;28;2356;-77
2023/04/06 11:59:06;;;;;;;;;;;;;;;5.79;67.47;101377.66;5075475;28;2188;-78
2023/04/06 12:01:33;;;;;;;;;;;;;;;5.79;67.37;101372.31;5058426;28;2130;-78
2023/04/06 12:04:00;;;;;;;;;;;;;;;5.78;67.38;101371.50;5048353;28;2198;-77
2023/04/06 12:06:27;;;;;;;;;;;;;;;5.77;67.39;101372.50;5077842;28;2272;-78
2023/04/06 12:08:53;;;;;;;;;;;;;;;5.78;67.58;101370.66;5082287;28;1967;-76
2023/04/06 12:11:21;;;;;;;;;;;;;;;5.78;67.52;101365.31;5068836;28;5317;-78
2023/04/06 12:13:48;;;;;;;;;;;;;;;5.78;67.44;101370.66;5091200;28;4157;-77
2023/04/06 12:16:15;;;;;;;;;;;;;;;5.78;67.44;101373.34;5069701;28;2230;-77
2023/04/06 12:18:42;;;;;;;;;;;;;;;5.77;67.41;101380.53;5069753;28;2189;-76
2023/04/06 12:21:08;;;;;;;;;;;;;;;5.76;67.38;101370.00;5068534;28;2103;-77
2023/04/06 12:23:35;;;;;;;;;;;;;;;5.77;67.28;101366.34;5060184;28;2074;-78
2023/04/06 12:26:02;;;;;;;;;;;;;;;5.75;67.55;101371.84;5065205;28;2072;-77
2023/04/06 12:28:28;;;;;;;;;;;;;;;5.76;67.32;101367.31;5065919;28;2084;-76
2023/04/06 12:30:55;;;;;;;;;;;;;;;5.76;67.44;101376.16;5060586;28;2020;-78
2023/04/06 12:33:22;;;;;;;;;;;;;;;5.75;67.43;101371.84;5065867;28;2043;-80
2023/04/06 12:35:48;;;;;;;;;;;;;;;5.76;67.23;101375.34;5062489;28;2328;-79
2023/04/06 12:38:15;;;;;;;;;;;;;;;5.74;67.37;101374.69;5061831;28;2176;-79
2023/04/06 12:40:42;;;;;;;;;;;;;;;5.74;67.58;101374.69;5061648;28;2081;-79
2023/04/06 12:43:09;;;;;;;;;;;;;;;5.74;67.42;101388.06;5061532;28;2084;-77
2023/04/06 12:45:35;;;;;;;;;;;;;;;5.75;67.42;101387.03;5063480;28;2047;-79
2023/04/06 12:48:02;;;;;;;;;;;;;;;5.74;67.49;101388.88;5064373;28;2011;-78
2023/04/06 12:50:28;;;;;;;;;;;;;;;5.74;67.32;101382.72;5071217;28;1262;-77
2023/04/06 12:52:55;;;;;;;;;;;;;;;5.74;67.28;101380.88;5062314;28;1887;-79